North Wichita, Kansas
Current Conditions -  °F | °C
As of 12:54 PM on Friday 24 Oct 2014 (Local Time) from KAAO Reporting Station
Clear Clear  
Wind Chill: 23°   Ceiling: Unl
Heat Index: 23°   Visibility: 10mi
Dew Point: 16°   Wind: 14mph
Humidity: 66%   Direction: 200°SSW
Pressure: 30.06"   Gusts: NA
Location:  37.7735°N, 97.3663°W
Report Text: KAAO 241754Z AUTO 20012KT 10SM CLR 23/16 A3006 RMK AO2 SLP170 T02280161 10228 20139 58004 $
Loading
Personal Weather Stations






























Interactive Weather Map
Tropical Storm Tracking
New forecast layout! Learn more

10-Day Weather Forecast

Advertisements
Track Severe Weather on mobile